Time;durP1;ratioP1;P1;durP2;ratioP2;P2;SDS_P1;SDS_P2;PMS_P1;PMS_P2;Temp;Humidity;BMP_temperature;BMP_pressure;BME280_temperature;BME280_humidity;BME280_pressure;Samples;Min_cycle;Max_cycle;Signal;HPM_P1;HPM_P2
2021/11/08 00:00:40;;;;;;;0.52;0.52;;;;;;;11.12;65.58;102091.91;5033516;28;20507;-83
2021/11/08 00:03:10;;;;;;;0.10;0.10;;;;;;;11.07;65.76;102098.97;5035517;28;20128;-83
2021/11/08 00:05:41;;;;;;;0.10;0.10;;;;;;;11.06;65.87;102091.91;5034970;28;20068;-82
2021/11/08 00:08:07;;;;;;;0.10;0.10;;;;;;;10.98;65.76;102090.16;5031139;28;20144;-82
2021/11/08 00:10:35;;;;;;;0.10;0.10;;;;;;;10.97;65.53;102091.03;5036681;28;20029;-82
2021/11/08 00:13:05;;;;;;;0.10;0.10;;;;;;;10.93;65.86;102091.94;5033070;28;20036;-82
2021/11/08 00:21:19;;;;;;;0.10;0.10;;;;;;;10.90;66.41;102102.53;5051441;28;20963;-81
2021/11/08 00:23:45;;;;;;;0.03;0.03;;;;;;;10.90;65.79;102105.19;5030881;28;20026;-82
2021/11/08 00:26:12;;;;;;;0.10;0.10;;;;;;;10.84;66.33;102106.09;5034100;28;20048;-82
2021/11/08 00:28:39;;;;;;;0.90;0.90;;;;;;;10.83;65.76;102104.31;5039935;28;20033;-81
2021/11/08 00:31:05;;;;;;;0.10;0.10;;;;;;;10.78;65.89;102108.72;5038669;28;20056;-82
2021/11/08 00:33:32;;;;;;;1.55;1.45;;;;;;;10.73;65.96;102105.22;5038096;28;20554;-81
2021/11/08 00:36:00;;;;;;;0.10;0.10;;;;;;;10.73;65.88;102099.00;5034287;28;20037;-81
2021/11/08 00:38:28;;;;;;;0.10;0.10;;;;;;;10.66;65.92;102099.00;5037575;28;20653;-82
2021/11/08 00:40:55;;;;;;;0.10;0.10;;;;;;;10.62;65.82;102094.59;5040520;28;20030;-81
2021/11/08 00:43:22;;;;;;;0.10;0.10;;;;;;;10.59;65.81;102097.25;5036492;28;20465;-81
2021/11/08 00:45:48;;;;;;;0.08;0.08;;;;;;;10.55;65.68;102105.22;5040697;28;20033;-82
2021/11/08 00:48:17;;;;;;;0.10;0.10;;;;;;;10.50;65.90;102118.44;5036275;28;20026;-82
2021/11/08 00:50:44;;;;;;;0.15;0.15;;;;;;;10.45;66.00;102114.91;5034553;28;20033;-82
2021/11/08 00:53:11;;;;;;;0.10;0.10;;;;;;;10.40;66.57;102114.03;5037609;28;20130;-81
2021/11/08 00:55:39;;;;;;;0.10;0.10;;;;;;;10.41;66.46;102121.09;5047392;28;20033;-81
2021/11/08 00:58:08;;;;;;;0.10;0.10;;;;;;;10.41;66.50;102124.63;5041288;28;20392;-82
2021/11/08 01:00:34;;;;;;;0.20;0.20;;;;;;;10.43;66.64;102121.97;5038842;28;20080;-82
2021/11/08 01:03:04;;;;;;;1.00;1.00;;;;;;;10.43;66.92;102122.88;5041069;28;20119;-81
2021/11/08 01:05:30;;;;;;;0.10;0.10;;;;;;;10.46;66.35;102121.97;5040383;28;20041;-82
2021/11/08 01:07:57;;;;;;;0.10;0.10;;;;;;;10.44;66.78;102127.28;5039753;28;20044;-82
2021/11/08 01:10:24;;;;;;;0.03;0.03;;;;;;;10.48;66.46;102128.16;5044378;28;20032;-82
2021/11/08 01:12:50;;;;;;;0.10;0.10;;;;;;;10.45;66.66;102123.72;5039844;28;20034;-82
2021/11/08 01:15:16;;;;;;;0.10;0.10;;;;;;;10.44;66.59;102121.09;5036552;28;20026;-81
2021/11/08 01:17:43;;;;;;;0.10;0.10;;;;;;;10.40;66.77;102120.19;5038295;28;20099;-82
2021/11/08 01:20:11;;;;;;;0.10;0.10;;;;;;;10.40;66.37;102125.50;5032968;28;20069;-82
2021/11/08 01:22:39;;;;;;;0.10;0.10;;;;;;;10.34;66.34;102118.41;5041547;28;20362;-82
2021/11/08 01:25:07;;;;;;;0.10;0.10;;;;;;;10.33;66.72;102123.69;5040821;28;20060;-82
2021/11/08 01:27:43;;;;;;;0.10;0.10;;;;;;;10.32;66.51;102120.16;5037308;28;20037;-82
2021/11/08 01:30:19;;;;;;;0.15;0.15;;;;;;;10.28;66.47;102123.69;5042118;28;20037;-82
2021/11/08 01:32:58;;;;;;;0.10;0.10;;;;;;;10.23;66.43;102122.81;5022546;28;20092;-82
2021/11/08 01:35:30;;;;;;;0.10;0.10;;;;;;;10.18;66.03;102128.09;5027777;28;20033;-82
2021/11/08 01:38:23;;;;;;;0.10;0.10;;;;;;;10.15;66.32;102121.91;5023224;28;20478;-82
2021/11/08 01:40:44;;;;;;;0.13;0.13;;;;;;;10.11;66.36;102120.13;5025000;28;20064;-82
2021/11/08 01:43:12;;;;;;;0.10;0.10;;;;;;;10.07;66.32;102113.94;5025149;28;20034;-83
2021/11/08 01:45:39;;;;;;;0.03;0.03;;;;;;;10.01;66.88;102114.78;5025012;28;20134;-82
2021/11/08 01:48:07;;;;;;;0.10;0.10;;;;;;;10.00;66.45;102123.59;5022476;28;20076;-82
2021/11/08 01:50:34;;;;;;;0.10;0.10;;;;;;;9.98;66.38;102122.75;5025121;28;20061;-82
2021/11/08 01:53:02;;;;;;;0.10;0.10;;;;;;;9.96;66.34;102121.84;5025374;28;20435;-83
2021/11/08 01:55:28;;;;;;;0.10;0.10;;;;;;;9.94;66.57;102122.72;5028130;28;20033;-82
2021/11/08 01:57:56;;;;;;;0.10;0.10;;;;;;;9.91;66.31;102122.72;5026023;28;20389;-83
2021/11/08 02:00:23;;;;;;;0.10;0.10;;;;;;;9.90;66.40;102123.59;5025104;28;20095;-82
2021/11/08 02:02:49;;;;;;;0.10;0.10;;;;;;;9.88;66.67;102121.81;5023236;28;20041;-82
2021/11/08 02:05:16;;;;;;;0.10;0.10;;;;;;;9.87;66.61;102119.19;5024810;28;20412;-82
2021/11/08 02:07:44;;;;;;;0.10;0.10;;;;;;;9.87;66.58;102124.47;5022586;28;20498;-83
2021/11/08 02:10:13;;;;;;;0.10;0.10;;;;;;;9.86;66.75;102120.91;5023030;28;20385;-82
2021/11/08 02:12:40;;;;;;;0.10;0.10;;;;;;;9.88;66.93;102118.28;5023258;28;20755;-82
2021/11/08 02:15:08;;;;;;;0.10;0.10;;;;;;;9.92;66.86;102125.38;5027476;28;20038;-82
2021/11/08 02:17:35;;;;;;;0.10;0.10;;;;;;;9.97;66.83;102117.41;5023655;28;20061;-84
2021/11/08 02:23:07;;;;;;;0.10;0.10;;;;;;;10.00;66.41;102113.00;5078991;27;20921;-82
2021/11/08 02:25:36;;;;;;;0.10;0.10;;;;;;;9.98;66.83;102114.78;5054417;28;20112;-82
2021/11/08 02:28:05;;;;;;;0.10;0.10;;;;;;;9.94;67.02;102120.94;5033262;28;20037;-82
2021/11/08 02:30:34;;;;;;;0.10;0.10;;;;;;;9.91;66.91;102122.72;5034089;28;20045;-82
2021/11/08 02:33:00;;;;;;;0.10;0.10;;;;;;;9.86;66.84;102112.09;5033278;28;20120;-82
2021/11/08 02:35:28;;;;;;;0.10;0.10;;;;;;;9.85;66.62;102107.69;5033087;28;20174;-81
2021/11/08 02:37:55;;;;;;;0.10;0.10;;;;;;;9.81;66.74;102112.09;5035902;28;20038;-82
2021/11/08 02:40:24;;;;;;;0.10;0.10;;;;;;;9.78;66.97;102119.13;5032121;28;20477;-81
2021/11/08 02:42:54;;;;;;;0.10;0.10;;;;;;;9.75;66.74;102116.47;5033427;28;20374;-82
2021/11/08 02:45:25;;;;;;;0.10;0.10;;;;;;;9.73;66.67;102119.09;5032590;28;20029;-82
2021/11/08 02:47:53;;;;;;;0.10;0.10;;;;;;;9.69;66.86;102112.03;5035049;28;20041;-81
2021/11/08 02:50:22;;;;;;;0.10;0.10;;;;;;;9.66;67.00;102107.63;5036400;28;20057;-82
2021/11/08 02:52:51;;;;;;;0.10;0.10;;;;;;;9.65;66.79;102118.19;5037864;28;20396;-82
2021/11/08 02:55:19;;;;;;;0.10;0.10;;;;;;;9.63;66.63;102118.19;5038202;28;20037;-83
2021/11/08 02:57:48;;;;;;;0.00;0.00;;;;;;;9.63;66.93;102123.50;5041879;28;20647;-81
2021/11/08 03:00:16;;;;;;;0.10;0.10;;;;;;;9.59;67.29;102120.81;5046606;28;20083;-82
2021/11/08 03:02:44;;;;;;;0.10;0.10;;;;;;;9.58;66.77;102125.22;5045188;28;20041;-82
2021/11/08 03:05:14;;;;;;;0.10;0.10;;;;;;;9.57;67.07;102126.13;5045246;28;20112;-82
2021/11/08 03:07:41;;;;;;;0.10;0.10;;;;;;;9.53;67.01;102132.25;5032651;28;20037;-82
2021/11/08 03:10:13;;;;;;;0.10;0.10;;;;;;;9.50;67.23;102127.81;5041955;28;20091;-83
2021/11/08 03:12:41;;;;;;;0.10;0.10;;;;;;;9.45;67.18;102134.00;5041644;28;20092;-82
2021/11/08 03:17:47;;;;;;;0.10;0.10;;;;;;;9.36;66.60;102125.09;5111254;27;20398;-82
2021/11/08 03:20:18;;;;;;;0.10;0.10;;;;;;;9.33;67.11;102126.84;5110667;27;20091;-81
2021/11/08 03:22:52;;;;;;;0.10;0.10;;;;;;;9.27;66.83;102135.66;5102434;28;20033;-81
2021/11/08 03:25:34;;;;;;;0.00;0.00;;;;;;;9.26;66.98;102128.59;5115856;27;20036;-82
2021/11/08 03:28:03;;;;;;;0.10;0.10;;;;;;;9.26;66.92;102128.59;5110644;28;20051;-82
2021/11/08 03:30:36;;;;;;;0.10;0.10;;;;;;;9.21;67.08;102128.56;5112059;28;20073;-81
2021/11/08 03:33:05;;;;;;;0.10;0.10;;;;;;;9.17;66.99;102133.78;5110232;27;20059;-82
2021/11/08 03:35:32;;;;;;;0.10;0.10;;;;;;;9.12;66.30;102135.53;5112031;28;20123;-82
2021/11/08 03:38:01;;;;;;;0.10;0.10;;;;;;;9.05;66.80;102130.19;5057939;22;20041;-80
2021/11/08 03:40:31;;;;;;;0.00;0.00;;;;;;;9.02;66.50;102130.19;5031832;28;20034;-80
2021/11/08 03:42:58;;;;;;;0.10;0.10;;;;;;;8.99;66.80;102135.44;5026663;28;20038;-78
2021/11/08 03:45:28;;;;;;;0.95;0.95;;;;;;;8.97;66.81;102139.84;5026196;28;20026;-78
2021/11/08 03:47:55;;;;;;;0.10;0.10;;;;;;;8.94;66.11;102144.22;5015431;28;20026;-78
2021/11/08 03:50:22;;;;;;;0.10;0.10;;;;;;;8.92;66.37;102144.19;5010796;28;20033;-79
2021/11/08 03:52:49;;;;;;;0.10;0.10;;;;;;;8.93;66.95;102143.31;5013540;28;20034;-79
2021/11/08 03:55:17;;;;;;;0.10;0.10;;;;;;;8.95;66.96;102153.91;5008056;28;20046;-79
2021/11/08 03:57:44;;;;;;;0.10;0.10;;;;;;;8.92;67.58;102157.41;5005339;28;20030;-79
2021/11/08 04:00:13;;;;;;;0.10;0.10;;;;;;;8.96;68.20;102153.94;5010613;28;20041;-79
2021/11/08 04:02:42;;;;;;;0.10;0.10;;;;;;;8.99;67.81;102158.38;5011468;28;20045;-78
2021/11/08 04:05:10;;;;;;;0.10;0.10;;;;;;;9.00;68.19;102163.66;5014756;28;20041;-82
2021/11/08 04:07:37;;;;;;;0.10;0.10;;;;;;;9.04;67.59;102176.00;5015839;28;20061;-80
2021/11/08 04:10:06;;;;;;;0.10;0.10;;;;;;;9.07;68.03;102176.06;5003143;28;20030;-83
2021/11/08 04:12:34;;;;;;;0.10;0.10;;;;;;;9.05;67.23;102175.16;5006675;28;20057;-82
2021/11/08 04:15:03;;;;;;;0.10;0.10;;;;;;;9.07;67.81;102183.09;5009615;28;20034;-83
2021/11/08 04:17:29;;;;;;;0.10;0.10;;;;;;;9.12;67.63;102177.84;5013107;28;20053;-82
2021/11/08 04:19:56;;;;;;;0.10;0.10;;;;;;;9.14;68.01;102179.63;5013142;28;20076;-82
2021/11/08 04:22:22;;;;;;;0.10;0.10;;;;;;;9.18;67.55;102185.81;5008362;28;20054;-83
2021/11/08 04:24:48;;;;;;;0.10;0.10;;;;;;;9.20;68.10;102181.44;5009859;28;20030;-83
2021/11/08 04:27:36;;;;;;;0.10;0.10;;;;;;;9.27;68.15;102183.25;5005723;28;20047;-84
2021/11/08 04:30:15;;;;;;;0.10;0.10;;;;;;;9.34;68.36;102185.03;4996992;28;20084;-84
2021/11/08 04:42:03;;;;;;;0.10;0.10;;;;;;;9.54;68.18;102176.34;5106340;27;20395;-80
2021/11/08 04:44:45;;;;;;;0.10;0.10;;;;;;;9.58;67.86;102174.63;5089451;28;20074;-80
2021/11/08 04:50:08;;;;;;;0.10;0.10;;;;;;;9.60;68.01;102181.69;5078629;28;20125;-80
2021/11/08 05:28:45;;;;;;;0.10;0.10;;;;;;;9.27;67.24;102199.13;5081784;28;20191;-85
2021/11/08 05:31:11;;;;;;;0.10;0.10;;;;;;;9.27;67.11;102204.41;5056844;28;20042;-82
2021/11/08 05:33:37;;;;;;;0.10;0.10;;;;;;;9.27;67.33;102204.41;5044974;28;20128;-81
2021/11/08 05:36:04;;;;;;;0.15;0.15;;;;;;;9.28;67.50;102218.50;5042822;28;20575;-82
2021/11/08 05:38:30;;;;;;;0.10;0.10;;;;;;;9.33;67.82;102212.41;5039683;28;20045;-83
2021/11/08 05:40:56;;;;;;;0.10;0.10;;;;;;;9.37;67.48;102206.25;5038353;28;20025;-81
2021/11/08 05:43:22;;;;;;;0.10;0.10;;;;;;;9.45;67.80;102211.56;5035125;28;20037;-84
2021/11/08 05:45:49;;;;;;;0.05;0.05;;;;;;;9.50;67.57;102220.44;5029218;28;20068;-83
2021/11/08 05:48:18;;;;;;;0.10;0.10;;;;;;;9.56;67.80;102214.31;5036275;28;20056;-79
2021/11/08 05:50:45;;;;;;;0.10;0.10;;;;;;;9.61;67.84;102214.31;5026471;28;20091;-83
2021/11/08 05:53:13;;;;;;;0.10;0.10;;;;;;;9.65;67.57;102214.34;5032888;28;20040;-82
2021/11/08 05:58:48;;;;;;;0.10;0.10;;;;;;;9.78;67.42;102217.06;5023384;28;20046;-82
2021/11/08 06:48:58;;;;;;;0.10;0.10;;;;;;;10.13;66.72;102245.47;5019002;28;20046;-85
2021/11/08 06:51:11;;;;;;;0.10;0.10;;;;;;;10.11;66.76;102239.31;5019002;28;20046;-82
2021/11/08 06:53:38;;;;;;;0.10;0.10;;;;;;;10.13;66.80;102241.06;5019778;28;20034;-83
2021/11/08 06:56:04;;;;;;;0.10;0.10;;;;;;;10.15;67.12;102249.03;5016106;28;20022;-82
2021/11/08 06:58:31;;;;;;;0.10;0.10;;;;;;;10.19;67.00;102248.16;5013627;28;20533;-81
2021/11/08 07:00:58;;;;;;;0.10;0.10;;;;;;;10.23;67.10;102259.63;5016385;28;20057;-81
2021/11/08 07:03:24;;;;;;;0.10;0.10;;;;;;;10.28;67.25;102260.53;5018012;28;20088;-83
2021/11/08 07:05:50;;;;;;;0.10;0.10;;;;;;;10.32;67.05;102262.34;5020249;28;20076;-80
2021/11/08 07:08:17;;;;;;;0.10;0.10;;;;;;;10.38;67.26;102258.84;5007361;28;20034;-83
2021/11/08 07:10:43;;;;;;;0.00;0.00;;;;;;;10.42;67.29;102264.16;5020025;28;20087;-82
2021/11/08 07:13:09;;;;;;;0.10;0.10;;;;;;;10.47;67.33;102256.25;5022462;28;20034;-84
2021/11/08 07:15:35;;;;;;;0.20;0.20;;;;;;;10.50;67.60;102261.53;5014498;28;20038;-85
2021/11/08 07:18:02;;;;;;;0.10;0.10;;;;;;;10.55;67.37;102264.22;5016106;28;20029;-81
2021/11/08 07:20:28;;;;;;;0.10;0.10;;;;;;;10.61;67.49;102265.09;5018404;28;20396;-83
2021/11/08 07:22:55;;;;;;;0.10;0.10;;;;;;;10.64;67.39;102275.72;5017838;28;20108;-86
2021/11/08 07:25:22;;;;;;;0.10;0.10;;;;;;;10.70;67.55;102281.94;5017703;28;20026;-85
2021/11/08 07:27:51;;;;;;;0.10;0.10;;;;;;;10.77;67.29;102286.38;5016991;28;20609;-83
2021/11/08 07:30:20;;;;;;;0.10;0.10;;;;;;;10.82;67.40;102289.91;5017600;28;20041;-83
2021/11/08 07:32:47;;;;;;;0.10;0.10;;;;;;;10.86;67.52;102296.97;5019927;28;20038;-84
2021/11/08 07:35:13;;;;;;;0.10;0.10;;;;;;;10.88;67.67;102300.53;5007000;28;20029;-83
2021/11/08 07:37:39;;;;;;;0.10;0.10;;;;;;;10.95;67.64;102304.06;5013528;28;20113;-82
2021/11/08 07:40:06;;;;;;;0.10;0.10;;;;;;;10.99;67.17;102304.09;5013516;28;20030;-82
2021/11/08 07:42:32;;;;;;;0.10;0.10;;;;;;;11.07;67.18;102305.88;5013647;28;20034;-83
2021/11/08 07:44:58;;;;;;;0.10;0.10;;;;;;;11.11;67.33;102310.28;5013678;28;20030;-82
2021/11/08 07:47:24;;;;;;;0.10;0.10;;;;;;;11.17;67.34;102312.94;5010050;28;20029;-82
2021/11/08 07:49:50;;;;;;;0.10;0.10;;;;;;;11.24;67.01;102313.81;5011748;28;20034;-82
2021/11/08 07:52:17;;;;;;;0.10;0.10;;;;;;;11.30;67.14;102316.47;4990573;28;20026;-83
2021/11/08 07:54:43;;;;;;;0.10;0.10;;;;;;;11.38;66.78;102313.84;5010333;28;20034;-83
2021/11/08 07:57:09;;;;;;;0.15;0.15;;;;;;;11.43;67.25;102314.75;5010122;28;20029;-83
2021/11/08 07:59:35;;;;;;;0.10;0.10;;;;;;;11.51;67.43;102310.28;5011351;28;20101;-83
2021/11/08 08:02:04;;;;;;;3.88;1.65;;;;;;;11.58;66.95;102314.72;5013436;28;20033;-83
2021/11/08 08:04:30;;;;;;;0.10;0.10;;;;;;;11.69;67.05;102322.69;5013831;28;20396;-84
2021/11/08 08:06:56;;;;;;;0.10;0.10;;;;;;;11.78;66.35;102329.75;5009912;23;20564;-88
2021/11/08 08:09:25;;;;;;;0.10;0.10;;;;;;;11.86;66.76;102335.06;4962801;28;20151;-88
2021/11/08 08:11:51;;;;;;;0.10;0.10;;;;;;;11.94;66.29;102331.50;4973603;28;20485;-89
2021/11/08 08:14:18;;;;;;;0.20;0.20;;;;;;;11.96;66.14;102332.44;4970602;28;20089;-87
2021/11/08 08:16:44;;;;;;;0.10;0.10;;;;;;;12.05;66.43;102335.94;4973492;28;20769;-87
2021/11/08 08:19:11;;;;;;;0.10;0.10;;;;;;;12.08;66.21;102341.25;4973207;28;20110;-87
2021/11/08 08:21:41;;;;;;;0.10;0.10;;;;;;;12.13;66.12;102342.13;4974088;28;20418;-91
2021/11/08 08:24:07;;;;;;;0.10;0.10;;;;;;;12.13;65.88;102340.34;4971296;28;20031;-87
2021/11/08 08:26:44;;;;;;;8.00;0.75;;;;;;;12.25;65.96;102344.75;4962092;28;20109;-91
2021/11/08 08:29:12;;;;;;;0.20;0.20;;;;;;;12.26;65.92;102350.94;4967384;28;20031;-87
2021/11/08 08:31:45;;;;;;;0.10;0.10;;;;;;;12.30;65.87;102348.28;4965850;28;20114;-86
2021/11/08 08:34:12;;;;;;;;;;;;;;;12.40;65.79;102350.88;4970675;28;20054;-86
2021/11/08 08:36:39;;;;;;;0.10;0.10;;;;;;;12.33;66.41;102351.81;4965307;28;19977;-86
2021/11/08 08:39:10;;;;;;;0.10;0.10;;;;;;;12.17;66.38;102351.84;4963396;28;20065;-82
2021/11/08 08:41:37;;;;;;;0.10;0.10;;;;;;;11.98;67.56;102358.97;4969296;28;20046;-86
2021/11/08 08:44:04;;;;;;;0.63;0.63;;;;;;;11.96;67.54;102359.00;4971869;28;20034;-87
2021/11/08 08:46:30;;;;;;;0.30;0.30;;;;;;;11.99;68.00;102363.41;4972293;28;20070;-86
2021/11/08 08:48:59;;;;;;;0.10;0.10;;;;;;;12.00;67.80;102359.88;4972660;28;20039;-87
2021/11/08 08:51:25;;;;;;;0.10;0.10;;;;;;;12.39;66.11;102363.31;4972884;28;20030;-85
2021/11/08 08:53:52;;;;;;;0.47;0.47;;;;;;;12.51;66.30;102357.06;4972168;28;20030;-85
2021/11/08 08:56:20;;;;;;;0.10;0.10;;;;;;;12.38;66.73;102356.22;4972151;28;20437;-88
2021/11/08 08:58:46;;;;;;;0.10;0.10;;;;;;;12.29;67.49;102357.13;4972798;28;20026;-87
2021/11/08 09:01:12;;;;;;;0.10;0.10;;;;;;;12.34;67.23;102369.53;4972293;28;20027;-85
2021/11/08 09:03:38;;;;;;;0.10;0.10;;;;;;;12.36;67.73;102362.44;4973014;28;20057;-86
2021/11/08 09:06:05;;;;;;;0.10;0.10;;;;;;;12.41;67.29;102363.28;4968466;28;20031;-86
2021/11/08 09:08:32;;;;;;;0.10;0.10;;;;;;;12.46;67.80;102356.19;4960007;28;20393;-86
2021/11/08 09:10:59;;;;;;;0.52;0.52;;;;;;;12.52;67.30;102364.13;4964153;28;20136;-85
2021/11/08 09:13:25;;;;;;;0.10;0.10;;;;;;;12.92;66.45;102371.06;4965655;28;20034;-85
2021/11/08 09:15:51;;;;;;;0.90;0.90;;;;;;;13.03;65.81;102357.69;4964902;28;20073;-85
2021/11/08 09:18:17;;;;;;;0.00;0.00;;;;;;;13.12;65.68;102360.28;4961619;28;20462;-85
2021/11/08 09:20:45;;;;;;;0.10;0.10;;;;;;;12.91;66.64;102367.53;4964954;28;20377;-85
2021/11/08 09:23:12;;;;;;;0.10;0.10;;;;;;;12.87;67.36;102371.09;4968171;28;20022;-84
2021/11/08 09:25:39;;;;;;;1.17;1.17;;;;;;;12.89;67.37;102385.25;4963945;28;20030;-83
2021/11/08 09:28:06;;;;;;;0.10;0.10;;;;;;;12.93;67.10;102381.72;4963952;28;20038;-85
2021/11/08 09:30:40;;;;;;;0.20;0.20;;;;;;;12.99;67.40;102380.78;4962824;28;20039;-85
2021/11/08 09:33:07;;;;;;;0.20;0.20;;;;;;;13.19;66.44;102378.00;4963434;28;20031;-85
2021/11/08 09:35:37;;;;;;;0.08;0.08;;;;;;;13.06;66.49;102371.88;4968824;28;20049;-85
2021/11/08 09:38:06;;;;;;;6.97;0.73;;;;;;;13.10;67.07;102378.94;4970192;28;20030;-85
2021/11/08 09:40:33;;;;;;;0.10;0.10;;;;;;;13.44;66.23;102385.84;4964414;28;20039;-84
2021/11/08 09:43:00;;;;;;;0.10;0.10;;;;;;;13.56;65.95;102380.44;4960069;28;20039;-85
2021/11/08 09:45:27;;;;;;;0.10;0.10;;;;;;;13.32;66.22;102370.84;4963385;28;20054;-85
2021/11/08 09:47:53;;;;;;;0.10;0.10;;;;;;;13.42;66.67;102379.63;4964403;28;20485;-85
2021/11/08 09:50:25;;;;;;;1.00;0.82;;;;;;;13.41;67.00;102383.22;4967408;28;20027;-85
2021/11/08 09:52:51;;;;;;;0.30;0.30;;;;;;;13.45;67.02;102384.09;4962389;28;20027;-85
2021/11/08 09:55:21;;;;;;;0.13;0.13;;;;;;;13.48;66.31;102373.41;4964700;28;20057;-85
2021/11/08 09:57:47;;;;;;;0.10;0.10;;;;;;;13.52;66.16;102370.72;4964127;28;20019;-85
2021/11/08 10:00:23;;;;;;;0.10;0.10;;;;;;;13.62;66.33;102378.63;4967619;28;20047;-85
2021/11/08 10:02:58;;;;;;;0.10;0.10;;;;;;;13.68;66.65;102375.91;4961976;28;20031;-85
2021/11/08 10:05:28;;;;;;;0.10;0.10;;;;;;;13.70;66.56;102374.13;4966082;28;21262;-85
2021/11/08 10:07:56;;;;;;;4.25;2.10;;;;;;;13.74;66.12;102375.84;4968152;28;20041;-85
2021/11/08 10:10:22;;;;;;;0.10;0.10;;;;;;;13.78;65.15;102372.25;4963853;28;20034;-87
2021/11/08 10:12:52;;;;;;;0.63;0.63;;;;;;;13.87;66.22;102374.84;4966228;28;20516;-87
2021/11/08 10:15:19;;;;;;;0.10;0.10;;;;;;;13.91;64.63;102373.03;4969983;28;20521;-87
2021/11/08 10:17:46;;;;;;;0.10;0.10;;;;;;;13.93;63.38;102376.56;4966617;28;20505;-85
2021/11/08 10:20:27;;;;;;;0.43;0.43;;;;;;;14.03;63.59;102372.03;4970336;28;20110;-85
2021/11/08 10:22:55;;;;;;;0.20;0.20;;;;;;;13.97;61.97;102370.31;4963156;28;20031;-85
2021/11/08 10:25:22;;;;;;;0.60;0.60;;;;;;;14.10;63.37;102365.75;4966692;28;20077;-86
2021/11/08 10:27:48;;;;;;;0.10;0.10;;;;;;;14.16;62.12;102373.66;4968016;28;20046;-86
2021/11/08 10:30:34;;;;;;;0.10;0.10;;;;;;;14.60;62.79;102363.38;4966470;28;20054;-86
2021/11/08 10:33:23;;;;;;;0.93;0.82;;;;;;;14.72;59.71;102365.06;4966935;28;20114;-86
2021/11/08 10:35:52;;;;;;;0.20;0.20;;;;;;;14.73;59.58;102364.16;4966855;28;20026;-85
2021/11/08 10:38:21;;;;;;;0.10;0.10;;;;;;;14.76;60.15;102368.56;4968833;28;20513;-86
2021/11/08 10:40:53;;;;;;;0.10;0.10;;;;;;;14.80;59.33;102371.16;4975088;28;20035;-84
2021/11/08 10:46:16;;;;;;;0.15;0.15;;;;;;;14.79;56.47;102361.41;5067224;28;20870;-86
2021/11/08 10:48:46;;;;;;;0.10;0.10;;;;;;;14.78;56.46;102364.09;5058146;28;20067;-86
2021/11/08 10:51:14;;;;;;;0.10;0.10;;;;;;;14.81;57.33;102356.94;5054732;28;20078;-85
2021/11/08 10:53:46;;;;;;;0.10;0.10;;;;;;;14.87;56.74;102359.50;5051734;28;20056;-85
2021/11/08 10:56:17;;;;;;;0.80;0.80;;;;;;;14.87;56.97;102348.84;5062948;28;20543;-85
2021/11/08 10:58:46;;;;;;;0.10;0.10;;;;;;;14.81;55.91;102372.94;5050585;28;20084;-85
2021/11/08 11:04:14;;;;;;;0.10;0.10;;;;;;;14.82;55.96;102366.69;5098922;27;20897;-83
2021/11/08 11:09:36;;;;;;;0.15;0.15;;;;;;;14.92;56.15;102359.47;5068623;28;20416;-84
2021/11/08 11:14:54;;;;;;;0.10;0.10;;;;;;;14.93;57.50;102360.31;5106820;27;20450;-85
2021/11/08 11:23:02;;;;;;;0.55;0.55;;;;;;;15.04;57.24;102371.72;5091730;27;20412;-85
2021/11/08 11:25:31;;;;;;;1.48;0.80;;;;;;;14.96;56.16;102370.97;5050856;28;20040;-85
2021/11/08 11:28:00;;;;;;;0.10;0.10;;;;;;;14.92;55.43;102367.47;5063679;28;20037;-85
2021/11/08 11:33:16;;;;;;;0.90;0.90;;;;;;;15.06;57.72;102372.59;5070419;27;20420;-85
2021/11/08 11:35:46;;;;;;;0.10;0.10;;;;;;;14.98;56.56;102374.50;5063565;28;20123;-85
2021/11/08 11:38:19;;;;;;;0.10;0.10;;;;;;;14.97;57.05;102383.41;5042089;28;20548;-86
2021/11/08 11:40:57;;;;;;;0.25;0.25;;;;;;;14.99;56.58;102384.25;5045667;28;20033;-85
2021/11/08 11:43:32;;;;;;;0.73;0.73;;;;;;;14.90;54.15;102382.59;5048277;28;20083;-86
2021/11/08 11:45:59;;;;;;;0.10;0.10;;;;;;;14.92;54.58;102385.28;5048520;28;20110;-86
2021/11/08 11:48:28;;;;;;;0.20;0.20;;;;;;;14.98;56.82;102386.06;5048020;28;20029;-85
2021/11/08 11:50:55;;;;;;;0.80;0.80;;;;;;;14.94;55.67;102388.78;5042762;28;20029;-85
2021/11/08 11:53:24;;;;;;;0.20;0.20;;;;;;;14.86;54.07;102387.09;5047988;28;20029;-86
2021/11/08 11:55:51;;;;;;;0.10;0.10;;;;;;;14.86;54.20;102379.09;5037850;28;20033;-89
2021/11/08 11:58:20;;;;;;;0.10;0.10;;;;;;;14.92;54.79;102379.94;5047561;28;20033;-91
2021/11/08 12:00:48;;;;;;;0.13;0.13;;;;;;;14.84;53.80;102378.25;5047887;28;20165;-85
2021/11/08 12:03:14;;;;;;;0.38;0.38;;;;;;;14.85;53.41;102380.00;5043476;28;20025;-87
2021/11/08 12:05:44;;;;;;;0.10;0.10;;;;;;;14.91;54.02;102372.81;5043744;28;20124;-86
2021/11/08 12:08:12;;;;;;;0.10;0.10;;;;;;;14.97;54.33;102367.41;5048381;28;20093;-85
2021/11/08 12:10:47;;;;;;;0.10;0.10;;;;;;;15.01;53.95;102374.47;5045199;28;20029;-88
2021/11/08 12:13:17;;;;;;;0.10;0.10;;;;;;;14.98;53.16;102367.38;5047951;28;20030;-88
2021/11/08 12:15:44;;;;;;;0.10;0.10;;;;;;;15.00;53.90;102365.56;5048616;28;20095;-88
2021/11/08 12:18:13;;;;;;;0.10;0.10;;;;;;;14.97;53.00;102354.06;5029654;28;20022;-88
2021/11/08 12:20:51;;;;;;;0.10;0.10;;;;;;;15.00;53.96;102364.69;5029613;28;20053;-89
2021/11/08 12:23:22;;;;;;;0.20;0.20;;;;;;;14.92;53.11;102375.47;5036763;28;20030;-91
2021/11/08 12:25:50;;;;;;;0.10;0.10;;;;;;;14.88;53.41;102365.75;5037531;28;20026;-87
2021/11/08 12:28:21;;;;;;;0.55;0.55;;;;;;;14.91;53.44;102356.81;5036117;28;20163;-83
2021/11/08 12:30:50;;;;;;;0.65;0.65;;;;;;;14.76;52.36;102369.44;5047737;28;20025;-88
2021/11/08 12:39:09;;;;;;;0.75;0.75;;;;;;;14.96;53.55;102360.28;5099737;27;20409;-81
2021/11/08 12:41:46;;;;;;;0.10;0.10;;;;;;;14.95;52.39;102355.84;5089068;28;20074;-89
2021/11/08 12:44:13;;;;;;;0.15;0.15;;;;;;;15.08;52.01;102360.13;5089335;28;20051;-90
2021/11/08 12:46:59;;;;;;;0.10;0.10;;;;;;;15.25;52.20;102356.31;5095215;28;20183;-89
2021/11/08 12:49:53;;;;;;;0.10;0.10;;;;;;;15.51;52.36;102359.47;5089449;28;20044;-90
2021/11/08 12:52:26;;;;;;;0.10;0.10;;;;;;;15.65;51.64;102350.31;5084822;28;20423;-89
2021/11/08 12:55:05;;;;;;;0.32;0.32;;;;;;;15.89;51.49;102348.16;5070753;28;20109;-89
2021/11/08 12:57:33;;;;;;;0.10;0.10;;;;;;;15.97;51.31;102351.56;5083483;28;20091;-89
2021/11/08 13:00:17;;;;;;;0.10;0.10;;;;;;;16.13;51.63;102347.69;5081969;28;20040;-89
2021/11/08 13:02:54;;;;;;;0.10;0.10;;;;;;;16.30;51.78;102346.50;5076944;28;20081;-89
2021/11/08 13:05:28;;;;;;;0.20;0.20;;;;;;;16.43;51.84;102353.34;5089363;28;20032;-90
2021/11/08 13:07:57;;;;;;;0.10;0.10;;;;;;;16.47;50.15;102341.69;5089457;28;20040;-89
2021/11/08 13:10:28;;;;;;;0.68;0.68;;;;;;;16.54;50.08;102341.56;5089370;28;20028;-90
2021/11/08 13:12:56;;;;;;;0.93;0.88;;;;;;;16.60;49.95;102344.09;5089442;28;20029;-89
2021/11/08 13:15:27;;;;;;;0.10;0.10;;;;;;;16.67;48.71;102343.03;5089085;28;20455;-93
2021/11/08 13:20:48;;;;;;;0.10;0.10;;;;;;;16.68;48.38;102339.44;5078099;28;20413;-89
2021/11/08 13:23:18;;;;;;;4.38;1.77;;;;;;;16.55;47.13;102348.66;5069537;28;20110;-90
2021/11/08 13:28:25;;;;;;;0.10;0.10;;;;;;;16.53;48.55;102346.00;5068445;28;20409;-88
2021/11/08 13:30:54;;;;;;;0.10;0.10;;;;;;;16.60;48.74;102341.44;5066378;28;20462;-90
2021/11/08 13:33:24;;;;;;;2.95;0.68;;;;;;;16.63;48.51;102344.03;5063767;28;20103;-89
2021/11/08 13:35:51;;;;;;;0.10;0.10;;;;;;;16.67;48.27;102345.72;5058162;28;20035;-89
2021/11/08 13:38:22;;;;;;;0.10;0.10;;;;;;;16.69;47.94;102351.91;5055138;28;20021;-89
2021/11/08 13:40:54;;;;;;;0.20;0.20;;;;;;;16.61;48.55;102351.19;5059893;28;20017;-89
2021/11/08 13:43:23;;;;;;;0.10;0.10;;;;;;;16.38;46.83;102352.56;5061808;28;20020;-88
2021/11/08 13:46:10;;;;;;;0.10;0.10;;;;;;;16.42;47.76;102345.34;5061283;28;20029;-88
2021/11/08 13:48:43;;;;;;;0.10;0.10;;;;;;;16.38;48.45;102352.56;5065161;28;20030;-90
2021/11/08 13:51:19;;;;;;;;;;;;;;;16.42;48.05;102345.34;5062592;28;20522;-86
2021/11/08 13:53:50;;;;;;;0.15;0.15;;;;;;;16.35;48.86;102352.63;5064141;28;19939;-89
2021/11/08 13:56:17;;;;;;;0.10;0.10;;;;;;;16.28;48.55;102356.34;5063205;28;20043;-89